Time;durP1;ratioP1;P1;durP2;ratioP2;P2;SDS_P1;SDS_P2;PMS_P1;PMS_P2;Temp;Humidity;BMP_temperature;BMP_pressure;BME280_temperature;BME280_humidity;BME280_pressure;Samples;Min_cycle;Max_cycle;Signal;HPM_P1;HPM_P2
2022/01/09 00:00:15;;;;;;;32.30;17.70;;;3.50;64.40;;;;;;5071496;28;20029;-69
2022/01/09 00:02:40;;;;;;;29.98;17.13;;;3.50;64.30;;;;;;5065375;28;20050;-69
2022/01/09 00:05:07;;;;;;;33.88;17.00;;;3.50;64.40;;;;;;5069643;28;20024;-69
2022/01/09 00:07:33;;;;;;;29.50;16.38;;;3.50;64.30;;;;;;5072951;28;20028;-67
2022/01/09 00:09:59;;;;;;;27.55;15.57;;;3.50;64.20;;;;;;5072739;28;20549;-67
2022/01/09 00:12:25;;;;;;;27.27;15.43;;;3.40;63.90;;;;;;5070852;28;20052;-69
2022/01/09 00:14:51;;;;;;;28.70;16.90;;;3.40;63.70;;;;;;5085070;28;20055;-69
2022/01/09 00:17:18;;;;;;;30.17;16.15;;;3.30;63.80;;;;;;5073856;28;20035;-69
2022/01/09 00:19:44;;;;;;;29.60;17.67;;;3.30;64.20;;;;;;5071527;28;20458;-68
2022/01/09 00:22:11;;;;;;;27.88;17.38;;;3.30;64.30;;;;;;5070861;28;20105;-70
2022/01/09 00:24:36;;;;;;;27.52;17.30;;;3.20;64.50;;;;;;5072586;28;20036;-68
2022/01/09 00:27:02;;;;;;;37.30;19.08;;;3.20;64.60;;;;;;5071809;28;21537;-68
2022/01/09 00:29:28;;;;;;;31.98;18.40;;;3.20;64.70;;;;;;5071479;28;20032;-68
2022/01/09 00:31:54;;;;;;;30.20;17.77;;;3.10;64.50;;;;;;5070963;28;20477;-67
2022/01/09 00:34:19;;;;;;;30.20;16.55;;;3.20;64.50;;;;;;5072641;28;20036;-68
2022/01/09 00:36:45;;;;;;;30.48;17.25;;;3.20;64.30;;;;;;5072798;28;20338;-69
2022/01/09 00:39:11;;;;;;;27.83;16.23;;;3.20;64.60;;;;;;5070513;28;20097;-68
2022/01/09 00:41:36;;;;;;;26.17;16.92;;;3.20;64.00;;;;;;5072444;28;20103;-70
2022/01/09 00:44:02;;;;;;;23.40;14.68;;;3.20;63.90;;;;;;5071789;28;20024;-69
2022/01/09 00:46:29;;;;;;;27.65;16.13;;;3.20;63.70;;;;;;5072766;28;20363;-70
2022/01/09 00:48:55;;;;;;;28.27;15.50;;;3.20;63.70;;;;;;5067719;28;20029;-65
2022/01/09 00:51:23;;;;;;;28.02;16.65;;;3.10;63.50;;;;;;5063729;28;20032;-69
2022/01/09 00:53:48;;;;;;;30.15;15.65;;;3.10;63.50;;;;;;5072604;28;20322;-68
2022/01/09 00:56:14;;;;;;;31.25;16.17;;;3.10;63.50;;;;;;5070713;28;20217;-69
2022/01/09 00:58:40;;;;;;;31.58;15.98;;;3.10;63.50;;;;;;5070905;28;20036;-70
2022/01/09 01:01:05;;;;;;;30.90;15.18;;;3.00;63.40;;;;;;5070102;28;20035;-68
2022/01/09 01:03:31;;;;;;;22.50;14.45;;;3.00;63.30;;;;;;5073883;28;20038;-68
2022/01/09 01:05:57;;;;;;;24.02;13.68;;;3.00;63.30;;;;;;5072562;28;20116;-68
2022/01/09 01:08:22;;;;;;;24.75;14.18;;;3.00;63.30;;;;;;5072096;28;20032;-68
2022/01/09 01:10:48;;;;;;;30.70;15.10;;;3.00;63.10;;;;;;5071518;28;20541;-67
2022/01/09 01:13:14;;;;;;;24.25;14.18;;;3.00;63.10;;;;;;5051324;28;20045;-68
2022/01/09 01:15:39;;;;;;;29.23;15.05;;;2.90;63.20;;;;;;5069469;28;20090;-69
2022/01/09 01:18:05;;;;;;;26.55;14.93;;;2.90;63.20;;;;;;5071601;28;20067;-67
2022/01/09 01:20:32;;;;;;;27.15;15.20;;;2.90;63.70;;;;;;5071478;28;20036;-69
2022/01/09 01:22:58;;;;;;;30.52;15.68;;;3.00;63.40;;;;;;5070256;28;20033;-67
2022/01/09 01:25:25;;;;;;;25.27;14.40;;;3.00;63.30;;;;;;5071712;28;20024;-69
2022/01/09 01:27:51;;;;;;;25.17;14.82;;;3.00;63.00;;;;;;5071796;28;20028;-70
2022/01/09 01:30:17;;;;;;;24.10;14.00;;;3.00;62.90;;;;;;5071120;28;20060;-69
2022/01/09 01:35:28;;;;;;;23.08;13.40;;;2.90;62.60;;;;;;5071044;28;20046;-68
2022/01/09 01:37:54;;;;;;;21.17;12.80;;;2.80;62.50;;;;;;5071247;28;20115;-71
2022/01/09 01:40:22;;;;;;;21.80;12.73;;;2.80;62.50;;;;;;5070718;28;20404;-68
2022/01/09 01:42:48;;;;;;;22.13;13.18;;;2.70;62.20;;;;;;5070077;28;20119;-68
2022/01/09 01:45:14;;;;;;;23.10;12.18;;;2.60;61.70;;;;;;5071148;28;20107;-67
2022/01/09 01:47:39;;;;;;;22.23;13.55;;;2.60;61.40;;;;;;5071943;28;20024;-68
2022/01/09 01:50:09;;;;;;;28.35;14.13;;;2.50;61.40;;;;;;5069651;28;20025;-65
2022/01/09 01:52:42;;;;;;;23.30;13.88;;;2.50;61.60;;;;;;5067423;28;20123;-66
2022/01/09 01:55:10;;;;;;;22.40;13.80;;;2.50;61.70;;;;;;5065509;28;20033;-71
2022/01/09 01:57:39;;;;;;;23.73;13.25;;;2.40;61.80;;;;;;5090039;28;20040;-68
2022/01/09 02:00:07;;;;;;;26.30;13.85;;;2.50;61.80;;;;;;5078259;28;20173;-67
2022/01/09 02:02:33;;;;;;;28.35;14.00;;;2.50;61.70;;;;;;5070970;28;20043;-70
2022/01/09 02:04:59;;;;;;;24.77;13.70;;;2.50;61.70;;;;;;5071891;28;20036;-69
2022/01/09 02:07:27;;;;;;;25.38;14.15;;;2.40;61.50;;;;;;5070407;28;20484;-68
2022/01/09 02:09:53;;;;;;;24.02;14.00;;;2.40;61.60;;;;;;5071489;28;20036;-68
2022/01/09 02:12:19;;;;;;;25.20;14.75;;;2.40;61.60;;;;;;5074278;28;20123;-67
2022/01/09 02:14:47;;;;;;;23.27;14.27;;;2.40;61.70;;;;;;5070876;28;20032;-67
2022/01/09 02:17:20;;;;;;;26.20;14.10;;;2.40;61.50;;;;;;5068744;28;20032;-67
2022/01/09 02:19:54;;;;;;;24.75;14.38;;;2.40;61.40;;;;;;5070492;28;20013;-69
2022/01/09 02:22:20;;;;;;;28.02;14.30;;;2.40;61.30;;;;;;5070856;28;20021;-68
2022/01/09 02:24:46;;;;;;;25.23;13.90;;;2.30;61.30;;;;;;5069965;28;20090;-68
2022/01/09 02:27:12;;;;;;;32.40;16.35;;;2.30;61.50;;;;;;5070453;28;20028;-68
2022/01/09 02:29:37;;;;;;;26.42;15.88;;;2.30;61.80;;;;;;5075603;28;20362;-68
2022/01/09 02:32:03;;;;;;;29.65;17.23;;;2.30;62.40;;;;;;5074796;28;20388;-67
2022/01/09 02:34:29;;;;;;;31.98;17.67;;;2.20;62.60;;;;;;5069756;28;20067;-67
2022/01/09 02:36:55;;;;;;;28.80;16.77;;;2.20;62.70;;;;;;5071387;28;20434;-69
2022/01/09 02:39:20;;;;;;;28.38;15.45;;;2.20;62.80;;;;;;5072158;28;20123;-67
2022/01/09 02:41:46;;;;;;;27.13;15.95;;;2.10;62.80;;;;;;5074665;28;20025;-69
2022/01/09 02:44:12;;;;;;;28.08;15.90;;;2.10;63.00;;;;;;5073053;28;20043;-67
2022/01/09 02:47:02;;;;;;;29.95;17.70;;;2.10;63.30;;;;;;5084855;28;20031;-68
2022/01/09 02:49:28;;;;;;;27.73;17.77;;;2.00;63.50;;;;;;5081228;28;20051;-69
2022/01/09 02:51:53;;;;;;;31.70;18.23;;;1.90;63.80;;;;;;5074852;28;20050;-68
2022/01/09 02:57:03;;;;;;;;;;;1.80;64.30;;;;;;5055389;28;20078;-68
2022/01/09 02:59:29;;;;;;;31.73;18.20;;;1.70;64.70;;;;;;5062920;28;19915;-69
2022/01/09 03:01:55;;;;;;;30.27;17.88;;;1.70;64.80;;;;;;5072726;28;20025;-67
2022/01/09 03:04:20;;;;;;;35.08;18.23;;;1.60;65.00;;;;;;5073737;28;20481;-68
2022/01/09 03:06:46;;;;;;;32.30;19.40;;;1.60;65.10;;;;;;5074729;28;20111;-68
2022/01/09 03:09:12;;;;;;;34.15;18.90;;;1.60;65.30;;;;;;5074070;28;20060;-69
2022/01/09 03:11:39;;;;;;;33.50;19.20;;;1.60;65.40;;;;;;5074200;28;20040;-68
2022/01/09 03:14:07;;;;;;;33.58;19.23;;;1.60;65.40;;;;;;5074390;28;20111;-65
2022/01/09 03:16:33;;;;;;;33.72;19.65;;;1.60;65.40;;;;;;5072775;28;20043;-68
2022/01/09 03:18:59;;;;;;;33.28;19.35;;;1.60;65.30;;;;;;5073471;28;20128;-67
2022/01/09 03:21:25;;;;;;;31.90;19.45;;;1.60;65.50;;;;;;5082965;28;20111;-68
2022/01/09 03:23:50;;;;;;;34.88;19.00;;;1.60;65.50;;;;;;5074139;28;20027;-68
2022/01/09 03:26:16;;;;;;;36.28;20.25;;;1.60;65.50;;;;;;5072971;28;20064;-68
2022/01/09 03:28:42;;;;;;;36.10;19.88;;;1.60;65.50;;;;;;5073984;28;20032;-67
2022/01/09 03:31:07;;;;;;;37.03;19.85;;;1.60;65.60;;;;;;5073520;28;20078;-66
2022/01/09 03:33:33;;;;;;;34.35;19.05;;;1.60;65.60;;;;;;5071592;28;20473;-68
2022/01/09 03:35:59;;;;;;;36.92;20.08;;;1.60;65.80;;;;;;5073295;28;20028;-67
2022/01/09 03:38:24;;;;;;;34.53;19.95;;;1.60;65.80;;;;;;5071279;28;20041;-67
2022/01/09 03:40:50;;;;;;;33.53;19.33;;;1.60;66.00;;;;;;5073474;28;20161;-68
2022/01/09 03:43:17;;;;;;;39.17;20.65;;;1.60;66.20;;;;;;5072440;28;20032;-68
2022/01/09 03:45:43;;;;;;;38.72;21.17;;;1.50;66.40;;;;;;5072493;28;20040;-67
2022/01/09 03:48:09;;;;;;;36.50;20.55;;;1.50;66.60;;;;;;5073334;28;20102;-67
2022/01/09 03:50:35;;;;;;;36.05;20.63;;;1.50;66.70;;;;;;5072229;28;20067;-70
2022/01/09 03:53:01;;;;;;;32.00;20.48;;;1.50;67.00;;;;;;5077657;28;20024;-67
2022/01/09 03:55:26;;;;;;;34.70;21.30;;;1.40;67.00;;;;;;5075014;28;20028;-68
2022/01/09 03:57:52;;;;;;;37.30;22.05;;;1.40;67.30;;;;;;5072101;28;20085;-69
2022/01/09 04:00:21;;;;;;;36.40;21.92;;;1.40;67.70;;;;;;5072321;28;20134;-68
2022/01/09 04:02:48;;;;;;;35.28;21.10;;;1.30;67.70;;;;;;5072958;28;20028;-67
2022/01/09 04:05:14;;;;;;;35.85;21.02;;;1.30;67.90;;;;;;5072493;28;20480;-67
2022/01/09 04:07:40;;;;;;;36.13;21.17;;;1.30;68.00;;;;;;5072338;28;20035;-67
2022/01/09 04:10:07;;;;;;;35.22;21.50;;;1.30;67.90;;;;;;5075720;28;20024;-68
2022/01/09 04:12:47;;;;;;;36.72;21.90;;;1.20;67.80;;;;;;5071311;28;20046;-67
2022/01/09 04:15:13;;;;;;;36.22;19.10;;;1.30;67.90;;;;;;5072043;28;20461;-67
2022/01/09 04:20:06;;;;;;;31.42;19.88;;;1.20;67.70;;;;;;5071444;28;20025;-68
2022/01/09 04:22:32;;;;;;;30.98;18.92;;;1.20;67.50;;;;;;5072606;28;20032;-66
2022/01/09 04:24:58;;;;;;;30.70;19.58;;;1.20;67.30;;;;;;5073648;28;20038;-67
2022/01/09 04:27:24;;;;;;;34.97;19.30;;;1.20;67.40;;;;;;5072307;28;20365;-67
2022/01/09 04:29:50;;;;;;;32.08;19.02;;;1.30;67.20;;;;;;5072530;28;20032;-66
2022/01/09 04:32:16;;;;;;;37.13;19.33;;;1.30;67.00;;;;;;5067093;28;20033;-67
2022/01/09 04:34:42;;;;;;;33.33;19.63;;;1.30;67.00;;;;;;5069549;28;20123;-66
2022/01/09 04:37:08;;;;;;;31.63;19.42;;;1.30;66.70;;;;;;5070130;28;20043;-67
2022/01/09 04:39:33;;;;;;;30.60;18.33;;;1.30;66.60;;;;;;5067962;28;20036;-68
2022/01/09 04:41:59;;;;;;;34.30;18.55;;;1.30;66.70;;;;;;5076662;28;20452;-67
2022/01/09 04:44:25;;;;;;;30.55;18.45;;;1.20;66.50;;;;;;5067052;28;20024;-67
2022/01/09 04:47:13;;;;;;;26.20;17.20;;;1.30;66.60;;;;;;5069113;28;20036;-68
2022/01/09 04:49:41;;;;;;;27.17;16.83;;;1.20;66.40;;;;;;5068459;28;20428;-67
2022/01/09 04:52:11;;;;;;;33.08;18.42;;;1.20;66.40;;;;;;5069086;28;20016;-67
2022/01/09 04:54:37;;;;;;;30.00;17.20;;;1.20;66.50;;;;;;5072822;28;20023;-67
2022/01/09 04:57:03;;;;;;;30.52;18.42;;;1.20;66.40;;;;;;5072120;28;20024;-65
2022/01/09 04:59:30;;;;;;;30.40;19.30;;;1.20;66.40;;;;;;5070095;28;20024;-66
2022/01/09 05:01:55;;;;;;;27.58;17.55;;;1.20;66.30;;;;;;5070985;28;20017;-67
2022/01/09 05:04:21;;;;;;;30.30;17.52;;;1.20;66.20;;;;;;5069378;28;20028;-66
2022/01/09 05:06:47;;;;;;;30.90;17.98;;;1.20;66.20;;;;;;5069554;28;20033;-67
2022/01/09 05:09:13;;;;;;;27.75;17.73;;;1.20;65.90;;;;;;5070406;28;20138;-64
2022/01/09 05:11:39;;;;;;;29.63;17.50;;;1.30;65.80;;;;;;5069653;28;20138;-66
2022/01/09 05:14:05;;;;;;;31.92;18.73;;;1.20;65.90;;;;;;5069213;28;20434;-67
2022/01/09 05:16:31;;;;;;;29.75;17.45;;;1.10;66.00;;;;;;5069860;28;20471;-67
2022/01/09 05:19:06;;;;;;;27.35;17.13;;;1.00;66.30;;;;;;5069522;28;20020;-65
2022/01/09 05:21:32;;;;;;;32.25;17.95;;;1.00;66.40;;;;;;5068990;28;20461;-67
2022/01/09 05:23:58;;;;;;;31.08;19.48;;;1.00;66.30;;;;;;5070222;28;20120;-64
2022/01/09 05:26:24;;;;;;;32.53;18.70;;;1.00;66.60;;;;;;5070801;28;20501;-66
2022/01/09 05:28:50;;;;;;;30.50;18.33;;;0.90;66.70;;;;;;5070385;28;20028;-67
2022/01/09 05:31:15;;;;;;;32.70;18.88;;;0.90;66.90;;;;;;5072396;28;20043;-67
2022/01/09 05:33:41;;;;;;;31.98;19.02;;;0.90;67.00;;;;;;5068984;28;20465;-66
2022/01/09 05:36:07;;;;;;;31.67;18.85;;;0.90;66.90;;;;;;5069955;28;20029;-67
2022/01/09 05:38:33;;;;;;;30.85;17.83;;;1.00;67.10;;;;;;5070266;28;20039;-67
2022/01/09 05:40:59;;;;;;;29.73;19.23;;;1.00;66.90;;;;;;5067880;28;20033;-64
2022/01/09 05:43:25;;;;;;;30.17;17.58;;;1.10;66.70;;;;;;5070231;28;20029;-68
2022/01/09 05:45:51;;;;;;;31.63;18.02;;;1.10;66.50;;;;;;5070098;28;20039;-68
2022/01/09 05:48:17;;;;;;;31.90;18.55;;;1.10;66.40;;;;;;5067104;28;20029;-68
2022/01/09 05:50:43;;;;;;;34.22;19.40;;;1.10;66.30;;;;;;5068848;28;20093;-67
2022/01/09 05:53:10;;;;;;;32.13;17.88;;;1.10;66.40;;;;;;5069667;28;20358;-68
2022/01/09 05:55:35;;;;;;;30.02;18.67;;;1.10;66.30;;;;;;5070092;28;20041;-67
2022/01/09 05:58:01;;;;;;;29.77;18.08;;;1.10;66.30;;;;;;5068835;28;20469;-65
2022/01/09 06:00:27;;;;;;;31.50;19.80;;;1.00;66.20;;;;;;5069027;28;20402;-67
2022/01/09 06:02:52;;;;;;;31.73;19.13;;;1.00;66.30;;;;;;5067994;28;20021;-67
2022/01/09 06:05:18;;;;;;;29.23;17.92;;;1.10;66.40;;;;;;5089171;28;20024;-67
2022/01/09 06:07:44;;;;;;;34.13;18.98;;;1.10;66.20;;;;;;5088709;28;20059;-67
2022/01/09 06:10:11;;;;;;;30.73;18.83;;;1.20;66.10;;;;;;5069412;28;20041;-67
2022/01/09 06:12:37;;;;;;;38.55;19.95;;;1.20;66.00;;;;;;5071350;28;20098;-67
2022/01/09 06:15:04;;;;;;;32.03;18.20;;;1.20;66.00;;;;;;5073407;28;20090;-66
2022/01/09 06:17:38;;;;;;;35.45;18.73;;;1.20;65.90;;;;;;5074281;28;20036;-66
2022/01/09 06:20:05;;;;;;;29.98;18.23;;;1.20;65.90;;;;;;5072541;28;20040;-66
2022/01/09 06:22:31;;;;;;;33.22;19.02;;;1.20;65.90;;;;;;5072402;28;20039;-67
2022/01/09 06:24:57;;;;;;;30.38;18.55;;;1.20;65.90;;;;;;5074299;28;20033;-66
2022/01/09 06:27:23;;;;;;;31.98;19.25;;;1.10;66.10;;;;;;5073377;28;20097;-66
2022/01/09 06:29:49;;;;;;;31.83;18.75;;;1.10;65.90;;;;;;5072319;28;20024;-67
2022/01/09 06:32:14;;;;;;;32.25;19.25;;;1.20;66.20;;;;;;5073065;28;20442;-66
2022/01/09 06:34:41;;;;;;;36.50;20.23;;;1.20;66.00;;;;;;5073553;28;20044;-67
2022/01/09 06:37:07;;;;;;;31.35;18.73;;;1.20;66.00;;;;;;5088003;28;20156;-66
2022/01/09 06:39:33;;;;;;;32.60;18.40;;;1.20;65.90;;;;;;5089401;28;20104;-67
2022/01/09 06:41:59;;;;;;;29.13;18.38;;;1.20;66.00;;;;;;5073182;28;20107;-64
2022/01/09 06:44:25;;;;;;;34.22;18.98;;;1.10;66.20;;;;;;5072309;28;20028;-67
2022/01/09 06:46:51;;;;;;;30.27;19.35;;;1.10;66.20;;;;;;5073274;28;20549;-67
2022/01/09 06:49:17;;;;;;;29.95;19.63;;;1.10;66.20;;;;;;5072875;28;20024;-68
2022/01/09 06:51:43;;;;;;;31.85;20.00;;;1.20;66.30;;;;;;5073419;28;20119;-66
2022/01/09 06:54:09;;;;;;;31.65;20.25;;;1.20;66.20;;;;;;5072213;28;20033;-66
2022/01/09 06:56:34;;;;;;;31.35;20.05;;;1.20;66.00;;;;;;5069418;28;20025;-67
2022/01/09 06:59:00;;;;;;;29.70;19.45;;;1.20;66.20;;;;;;5062540;28;20564;-63
2022/01/09 07:01:26;;;;;;;32.63;20.15;;;1.20;66.00;;;;;;5073251;28;20029;-66
2022/01/09 07:03:51;;;;;;;35.78;20.52;;;1.20;66.10;;;;;;5073577;28;20453;-68
2022/01/09 07:06:17;;;;;;;34.95;19.95;;;1.20;66.20;;;;;;5072837;28;20162;-67
2022/01/09 07:08:43;;;;;;;34.00;20.85;;;1.30;66.20;;;;;;5071816;28;20033;-66
2022/01/09 07:11:09;;;;;;;30.70;19.65;;;1.30;66.20;;;;;;5071135;28;20039;-68
2022/01/09 07:13:35;;;;;;;34.92;21.25;;;1.30;66.30;;;;;;5071446;28;20461;-67
2022/01/09 07:16:01;;;;;;;34.28;20.80;;;1.40;66.30;;;;;;5072576;28;20036;-63
2022/01/09 07:18:27;;;;;;;33.58;19.35;;;1.50;65.90;;;;;;5070943;28;20039;-65
2022/01/09 07:20:53;;;;;;;32.53;20.15;;;1.50;65.90;;;;;;5072373;28;20103;-68
2022/01/09 07:23:18;;;;;;;31.52;20.08;;;1.60;65.60;;;;;;5071936;28;20159;-68
2022/01/09 07:25:44;;;;;;;32.97;20.73;;;1.70;65.40;;;;;;5081265;28;20040;-67
2022/01/09 07:28:10;;;;;;;33.05;20.40;;;1.70;65.20;;;;;;5082695;28;20131;-68
2022/01/09 07:30:36;;;;;;;32.50;20.52;;;1.80;64.90;;;;;;5072253;28;20029;-70
2022/01/09 07:33:04;;;;;;;36.55;21.05;;;1.80;64.80;;;;;;5071041;28;20032;-65
2022/01/09 07:35:31;;;;;;;33.13;19.98;;;1.80;64.60;;;;;;5072729;28;20045;-66
2022/01/09 07:37:57;;;;;;;32.90;20.80;;;1.80;64.60;;;;;;5068555;28;20753;-69
2022/01/09 07:40:23;;;;;;;32.53;19.88;;;1.80;64.90;;;;;;5077416;28;20028;-69
2022/01/09 07:42:49;;;;;;;30.42;18.95;;;1.90;65.50;;;;;;5089522;28;20123;-69
2022/01/09 07:45:19;;;;;;;33.75;20.60;;;1.90;64.60;;;;;;5079840;28;20036;-67
2022/01/09 07:47:45;;;;;;;33.03;20.08;;;2.00;64.60;;;;;;5088884;28;20481;-69
2022/01/09 07:50:12;;;;;;;30.58;19.42;;;2.00;64.30;;;;;;5087758;28;20039;-68
2022/01/09 07:52:39;;;;;;;30.20;18.77;;;2.10;64.30;;;;;;5087412;28;20036;-69
2022/01/09 07:55:06;;;;;;;32.80;20.45;;;2.10;63.80;;;;;;5070326;28;20563;-68
2022/01/09 07:57:32;;;;;;;31.10;19.73;;;2.10;63.70;;;;;;5071209;28;20047;-70
2022/01/09 07:59:58;;;;;;;32.95;20.17;;;2.10;64.00;;;;;;5084390;28;20073;-69
2022/01/09 08:02:24;;;;;;;32.58;20.70;;;2.20;63.90;;;;;;5082669;28;20040;-72
2022/01/09 08:04:50;;;;;;;33.60;20.40;;;2.20;63.50;;;;;;5087735;28;20085;-69
2022/01/09 08:07:16;;;;;;;29.63;20.45;;;2.30;63.50;;;;;;5090043;28;20036;-69
2022/01/09 08:09:44;;;;;;;38.15;19.83;;;2.30;63.30;;;;;;5089404;28;20028;-71
2022/01/09 08:12:14;;;;;;;34.25;21.15;;;2.30;63.20;;;;;;5088049;28;20569;-69
2022/01/09 08:14:40;;;;;;;34.92;21.25;;;2.30;63.40;;;;;;5089670;28;20070;-70
2022/01/09 08:17:06;;;;;;;34.78;21.77;;;2.40;63.50;;;;;;5087140;28;20052;-70
2022/01/09 08:19:32;;;;;;;33.78;22.65;;;2.40;63.10;;;;;;5087635;28;20104;-69
2022/01/09 08:21:58;;;;;;;36.28;22.45;;;2.30;63.20;;;;;;5078211;28;20044;-69
2022/01/09 08:24:24;;;;;;;40.00;25.13;;;2.40;63.60;;;;;;5074607;28;20052;-69
2022/01/09 08:26:50;;;;;;;34.10;23.45;;;2.40;63.30;;;;;;5084476;28;20034;-70
2022/01/09 08:29:16;;;;;;;37.60;22.88;;;2.40;63.20;;;;;;5087997;28;20392;-70
2022/01/09 08:31:42;;;;;;;37.47;24.10;;;2.40;63.30;;;;;;5072715;28;20059;-70
2022/01/09 08:34:09;;;;;;;36.35;23.17;;;2.40;63.10;;;;;;5088383;28;20067;-69
2022/01/09 08:36:35;;;;;;;38.35;23.17;;;2.40;63.30;;;;;;5084017;28;20108;-71
2022/01/09 08:39:03;;;;;;;38.22;22.67;;;2.40;63.40;;;;;;5070259;28;20033;-66
2022/01/09 08:41:29;;;;;;;39.72;25.30;;;2.50;63.50;;;;;;5070435;28;20033;-71
2022/01/09 08:43:54;;;;;;;39.80;22.65;;;2.50;63.40;;;;;;5070476;28;20085;-71
2022/01/09 08:46:20;;;;;;;38.85;23.35;;;2.60;63.50;;;;;;5080437;28;20032;-70
2022/01/09 08:48:46;;;;;;;37.13;22.60;;;2.60;64.00;;;;;;5091188;28;20503;-69
2022/01/09 08:51:12;;;;;;;39.50;24.48;;;2.70;63.40;;;;;;5083139;28;20025;-69
2022/01/09 08:53:37;;;;;;;41.78;23.95;;;2.70;63.30;;;;;;5078019;28;20036;-72
2022/01/09 08:56:06;;;;;;;34.65;23.35;;;2.80;63.60;;;;;;5080001;28;20041;-71
2022/01/09 08:58:32;;;;;;;37.75;23.70;;;2.90;63.50;;;;;;5064828;28;20052;-69
2022/01/09 09:00:59;;;;;;;45.30;24.63;;;2.90;63.60;;;;;;5069880;28;20438;-71
2022/01/09 09:03:26;;;;;;;38.03;23.98;;;2.90;63.50;;;;;;5067782;28;20095;-70
2022/01/09 09:05:52;;;;;;;38.35;23.58;;;2.90;63.40;;;;;;5066958;28;20036;-66
2022/01/09 09:08:18;;;;;;;37.72;23.92;;;3.00;63.70;;;;;;5066975;28;20032;-68
2022/01/09 09:10:46;;;;;;;35.33;23.38;;;3.00;63.60;;;;;;5084571;28;20044;-67
2022/01/09 09:13:13;;;;;;;36.28;22.52;;;2.90;63.70;;;;;;5066102;28;20063;-67
2022/01/09 09:15:40;;;;;;;40.90;23.25;;;2.90;63.60;;;;;;5070814;28;20493;-70
2022/01/09 09:18:06;;;;;;;37.58;24.10;;;2.90;63.80;;;;;;5078808;28;20036;-67
2022/01/09 09:20:31;;;;;;;39.38;24.02;;;2.80;64.20;;;;;;5089962;28;20621;-68
2022/01/09 09:22:57;;;;;;;37.35;23.60;;;2.90;64.40;;;;;;5071320;28;20028;-69
2022/01/09 09:25:23;;;;;;;38.25;23.90;;;3.00;64.50;;;;;;5072056;28;20051;-70
2022/01/09 09:27:48;;;;;;;37.40;23.60;;;3.00;64.10;;;;;;5090200;28;20028;-69
2022/01/09 09:30:14;;;;;;;39.90;23.42;;;3.00;64.20;;;;;;5076361;28;20044;-70
2022/01/09 09:32:42;;;;;;;38.80;25.23;;;3.00;64.30;;;;;;5071526;28;20367;-70
2022/01/09 09:35:09;;;;;;;34.80;23.38;;;3.10;64.50;;;;;;5067944;28;20036;-67
2022/01/09 09:37:35;;;;;;;38.85;23.42;;;3.10;64.30;;;;;;5069014;28;20059;-70
2022/01/09 09:40:01;;;;;;;33.83;22.63;;;3.10;63.80;;;;;;5068465;28;20092;-69
2022/01/09 09:42:26;;;;;;;36.75;22.75;;;3.20;63.70;;;;;;5066999;28;20037;-71
2022/01/09 09:44:53;;;;;;;39.33;23.35;;;3.20;63.60;;;;;;5070311;28;20540;-69
2022/01/09 09:47:20;;;;;;;37.42;22.67;;;3.20;63.60;;;;;;5070069;28;20457;-70
2022/01/09 09:49:48;;;;;;;33.55;21.83;;;3.30;63.20;;;;;;5070436;28;20075;-74
2022/01/09 09:52:18;;;;;;;36.67;21.90;;;3.30;63.20;;;;;;5069209;28;20115;-68
2022/01/09 09:54:47;;;;;;;34.65;21.60;;;3.40;62.70;;;;;;5068268;28;20044;-68
2022/01/09 09:57:12;;;;;;;36.28;22.83;;;3.30;63.00;;;;;;5079922;28;20422;-68
2022/01/09 09:59:39;;;;;;;33.33;21.88;;;3.30;62.70;;;;;;5072268;28;20102;-68
2022/01/09 10:02:15;;;;;;;38.97;23.73;;;3.40;62.80;;;;;;5069005;28;20052;-68
2022/01/09 10:05:01;;;;;;;37.17;23.00;;;3.30;62.50;;;;;;5070181;28;20111;-69
2022/01/09 10:07:28;;;;;;;36.47;23.25;;;3.40;62.80;;;;;;5067848;28;20028;-70
2022/01/09 10:10:00;;;;;;;38.92;23.42;;;3.30;62.70;;;;;;5068796;28;20033;-69
2022/01/09 10:12:28;;;;;;;35.45;22.55;;;3.40;63.00;;;;;;5069234;28;20063;-69
2022/01/09 10:14:56;;;;;;;38.05;24.02;;;3.40;62.80;;;;;;5069896;28;20131;-69
2022/01/09 10:17:23;;;;;;;36.78;22.98;;;3.50;62.70;;;;;;5069324;28;20031;-69
2022/01/09 10:19:56;;;;;;;39.08;23.02;;;3.50;62.60;;;;;;5068865;28;20491;-68
2022/01/09 10:22:38;;;;;;;32.10;21.73;;;3.50;62.60;;;;;;5082864;28;20032;-69
2022/01/09 10:25:16;;;;;;;34.80;22.42;;;3.60;62.30;;;;;;5069109;28;20033;-66
2022/01/09 10:27:42;;;;;;;35.92;22.90;;;3.70;61.70;;;;;;5076568;28;20162;-68
2022/01/09 10:30:08;;;;;;;39.45;23.38;;;3.70;62.10;;;;;;5069313;28;20104;-70
2022/01/09 10:32:34;;;;;;;36.78;23.20;;;3.80;62.10;;;;;;5069333;28;20350;-69
2022/01/09 10:35:15;;;;;;;37.47;23.10;;;3.90;62.90;;;;;;5069361;28;20039;-68
2022/01/09 10:37:43;;;;;;;36.85;23.85;;;3.90;61.70;;;;;;5070324;28;20120;-70
2022/01/09 10:40:17;;;;;;;38.92;24.67;;;4.00;61.90;;;;;;5069075;28;20128;-68
2022/01/09 10:42:43;;;;;;;35.20;23.10;;;4.10;61.40;;;;;;5075895;28;20032;-73
2022/01/09 10:45:40;;;;;;;34.55;23.25;;;4.10;60.80;;;;;;5077656;28;20082;-79
2022/01/09 10:48:08;;;;;;;35.53;21.48;;;4.10;60.90;;;;;;5056992;28;20037;-71
2022/01/09 10:50:37;;;;;;;34.20;23.02;;;4.10;61.10;;;;;;5070010;28;20368;-72
2022/01/09 10:53:17;;;;;;;36.58;23.63;;;4.20;60.80;;;;;;5052140;28;20034;-74
2022/01/09 10:56:01;;;;;;;38.75;26.60;;;4.30;60.80;;;;;;5069666;28;20080;-78
2022/01/09 10:58:27;;;;;;;37.45;23.95;;;4.40;60.10;;;;;;5065090;28;20027;-72
2022/01/09 11:01:29;;;;;;;38.25;23.65;;;4.40;60.00;;;;;;5069943;28;20116;-78
2022/01/09 11:04:08;;;;;;;34.72;21.77;;;4.40;59.00;;;;;;5050696;28;20032;-72
2022/01/09 11:06:38;;;;;;;38.80;24.83;;;4.30;59.20;;;;;;5071516;28;20032;-76
2022/01/09 11:09:06;;;;;;;36.80;24.02;;;4.30;59.40;;;;;;5073346;28;20483;-71
2022/01/09 11:11:40;;;;;;;52.55;28.08;;;4.20;59.60;;;;;;5073436;28;20040;-72
2022/01/09 11:14:11;;;;;;;36.05;23.23;;;4.30;60.00;;;;;;5072524;28;20021;-71
2022/01/09 11:16:42;;;;;;;37.58;23.70;;;4.20;59.60;;;;;;5073593;28;20062;-81
2022/01/09 11:19:17;;;;;;;32.20;21.83;;;4.10;59.90;;;;;;5074451;28;20041;-75
2022/01/09 11:21:44;;;;;;;;;;;4.10;60.00;;;;;;5073617;28;20428;-75
2022/01/09 11:24:35;;;;;;;36.25;22.48;;;4.20;60.40;;;;;;5073299;28;19912;-74
2022/01/09 11:27:09;;;;;;;43.45;24.27;;;4.20;60.10;;;;;;5074509;28;20036;-76
2022/01/09 11:29:52;;;;;;;46.65;25.27;;;4.30;60.30;;;;;;5071322;28;20158;-75
2022/01/09 11:32:46;;;;;;;48.25;24.35;;;4.30;59.50;;;;;;5070064;28;20021;-75
2022/01/09 11:35:12;;;;;;;35.72;20.95;;;4.20;59.70;;;;;;5067940;28;20071;-72
2022/01/09 11:37:40;;;;;;;42.90;21.70;;;4.20;59.80;;;;;;5071612;28;20103;-75
2022/01/09 11:40:21;;;;;;;34.17;22.17;;;4.30;59.90;;;;;;5070838;28;20031;-68
2022/01/09 11:43:13;;;;;;;36.83;22.20;;;4.30;59.60;;;;;;5071102;28;20017;-74
2022/01/09 11:45:45;;;;;;;38.88;25.38;;;4.30;59.70;;;;;;5069511;28;20081;-76
2022/01/09 11:48:11;;;;;;;38.58;21.92;;;4.40;59.30;;;;;;5070056;28;20096;-74
2022/01/09 11:51:06;;;;;;;41.92;21.80;;;4.50;59.40;;;;;;5071059;28;20120;-75
2022/01/09 11:53:57;;;;;;;36.47;24.08;;;4.50;58.90;;;;;;5068839;28;20033;-75
2022/01/09 11:56:41;;;;;;;35.25;20.92;;;4.50;59.10;;;;;;5058521;28;20121;-76
2022/01/09 11:59:23;;;;;;;;;;;4.50;58.90;;;;;;5069085;28;20031;-74
2022/01/09 12:01:52;;;;;;;33.33;19.38;;;4.50;58.70;;;;;;5069527;28;19908;-77
2022/01/09 12:04:33;;;;;;;34.97;21.45;;;4.50;59.10;;;;;;5086292;28;20028;-77
2022/01/09 12:07:13;;;;;;;34.95;21.48;;;4.50;58.90;;;;;;5071660;28;20028;-77
2022/01/09 12:09:42;;;;;;;40.92;23.65;;;4.60;59.10;;;;;;5070120;28;20036;-76
2022/01/09 12:12:16;;;;;;;29.75;19.88;;;4.60;59.10;;;;;;5066229;28;20044;-73
2022/01/09 12:14:41;;;;;;;32.15;19.73;;;4.50;58.50;;;;;;5071809;28;20159;-76
2022/01/09 12:17:33;;;;;;;39.10;26.70;;;4.50;58.70;;;;;;5069026;28;20129;-69
2022/01/09 12:20:07;;;;;;;33.65;21.52;;;4.50;59.30;;;;;;5067463;28;20021;-74
2022/01/09 12:22:39;;;;;;;38.28;23.27;;;4.60;58.90;;;;;;5071647;28;20020;-75
2022/01/09 12:25:21;;;;;;;46.83;26.60;;;4.60;59.10;;;;;;5067890;28;20036;-77
2022/01/09 12:27:53;;;;;;;75.82;39.25;;;4.70;59.00;;;;;;5067767;28;20082;-75
2022/01/09 12:30:50;;;;;;;43.20;23.58;;;4.90;59.00;;;;;;5067311;28;20119;-69
2022/01/09 12:33:20;;;;;;;41.65;21.17;;;4.90;58.30;;;;;;5071325;28;20020;-76
2022/01/09 12:35:55;;;;;;;45.08;22.02;;;4.90;58.30;;;;;;5078357;28;20046;-77
2022/01/09 12:38:23;;;;;;;42.90;25.65;;;5.10;58.40;;;;;;5093150;28;20059;-78
2022/01/09 12:40:57;;;;;;;29.60;19.42;;;5.10;58.00;;;;;;5093295;28;20052;-77
2022/01/09 12:43:25;;;;;;;32.42;20.08;;;5.10;57.90;;;;;;5077297;28;20021;-78
2022/01/09 12:45:52;;;;;;;33.85;22.13;;;5.20;57.90;;;;;;5072402;28;20077;-79
2022/01/09 12:48:27;;;;;;;40.00;26.88;;;5.30;57.90;;;;;;5070707;28;20029;-79
2022/01/09 12:50:54;;;;;;;56.50;36.80;;;5.40;57.80;;;;;;5072908;28;20083;-76